createdAt,value
2023-03-11T00:00:34.303Z,974.12
2023-03-11T00:01:33.297Z,974.12
2023-03-11T00:02:33.280Z,974.19
2023-03-11T00:03:33.288Z,974.16
2023-03-11T00:04:33.267Z,974.26
2023-03-11T00:05:33.289Z,974.28
2023-03-11T00:06:33.263Z,974.27
2023-03-11T00:07:33.222Z,974.21
2023-03-11T00:08:33.231Z,974.21
2023-03-11T00:09:33.203Z,974.16
2023-03-11T00:10:33.193Z,974.22
2023-03-11T00:11:33.200Z,974.24
2023-03-11T00:12:33.182Z,974.31
2023-03-11T00:13:33.197Z,974.24
2023-03-11T00:14:33.158Z,974.23
2023-03-11T00:15:33.180Z,974.30
2023-03-11T00:16:33.185Z,974.32
2023-03-11T00:17:33.141Z,974.29
2023-03-11T00:18:33.144Z,974.35
2023-03-11T00:19:33.110Z,974.27
2023-03-11T00:20:33.100Z,974.35
2023-03-11T00:21:33.085Z,974.32
2023-03-11T00:22:33.110Z,974.38
2023-03-11T00:23:33.079Z,974.38
2023-03-11T00:24:33.085Z,974.48
2023-03-11T00:25:33.047Z,974.43
2023-03-11T00:26:33.040Z,974.45
2023-03-11T00:27:33.066Z,974.50
2023-03-11T00:28:34.376Z,974.53
2023-03-11T00:29:34.021Z,974.60
2023-03-11T00:30:33.040Z,974.57
2023-03-11T00:31:33.003Z,974.62
2023-03-11T00:32:33.062Z,974.72
2023-03-11T00:33:32.991Z,974.65
2023-03-11T00:34:32.968Z,974.69
2023-03-11T00:35:33.008Z,974.84
2023-03-11T00:36:32.943Z,974.76
2023-03-11T00:37:32.936Z,974.71
2023-03-11T00:38:32.990Z,974.80
2023-03-11T00:39:32.921Z,974.85
2023-03-11T00:40:32.908Z,974.86
2023-03-11T00:41:32.894Z,974.93
2023-03-11T00:42:32.887Z,974.90
2023-03-11T00:43:32.893Z,974.85
2023-03-11T00:44:32.868Z,974.99
2023-03-11T00:45:32.850Z,974.96
2023-03-11T00:46:32.882Z,974.96
2023-03-11T00:47:32.827Z,975.05
2023-03-11T00:48:32.843Z,975.06
2023-03-11T00:49:32.809Z,975.10
2023-03-11T00:50:32.819Z,974.96
2023-03-11T00:51:34.262Z,975.05
2023-03-11T00:52:33.795Z,975.05
2023-03-11T00:53:32.780Z,975.08
2023-03-11T00:54:32.765Z,975.10
2023-03-11T00:55:32.789Z,975.11
2023-03-11T00:56:32.746Z,975.08
2023-03-11T00:57:32.734Z,975.17
2023-03-11T00:58:32.715Z,975.13
2023-03-11T00:59:32.708Z,975.14
2023-03-11T01:00:32.733Z,975.13
2023-03-11T01:01:32.752Z,975.19
2023-03-11T01:02:32.690Z,975.20
2023-03-11T01:03:32.694Z,975.23
2023-03-11T01:04:32.731Z,975.26
2023-03-11T01:05:32.652Z,975.25
2023-03-11T01:06:44.457Z,975.31
2023-03-11T01:07:34.641Z,975.36
2023-03-11T01:08:32.629Z,975.33
2023-03-11T01:09:32.604Z,975.37
2023-03-11T01:10:32.626Z,975.32
2023-03-11T01:11:32.600Z,975.36
2023-03-11T01:12:32.609Z,975.35
2023-03-11T01:13:32.594Z,975.35
2023-03-11T01:14:32.573Z,975.33
2023-03-11T01:15:32.629Z,975.40
2023-03-11T01:16:32.524Z,975.46
2023-03-11T01:17:32.534Z,975.41
2023-03-11T01:18:32.529Z,975.39
2023-03-11T01:19:32.518Z,975.43
2023-03-11T01:20:32.521Z,975.54
2023-03-11T01:21:32.497Z,975.57
2023-03-11T01:22:32.477Z,975.53
2023-03-11T01:23:32.498Z,975.53
2023-03-11T01:24:32.486Z,975.47
2023-03-11T01:25:32.446Z,975.51
2023-03-11T01:26:32.451Z,975.51
2023-03-11T01:27:32.469Z,975.47
2023-03-11T01:28:32.425Z,975.61
2023-03-11T01:29:32.419Z,975.55
2023-03-11T01:30:32.427Z,975.63
2023-03-11T01:31:32.393Z,975.61
2023-03-11T01:32:32.478Z,975.53
2023-03-11T01:34:04.279Z,975.63
2023-03-11T01:34:32.363Z,975.61
2023-03-11T01:35:32.425Z,975.67
2023-03-11T01:36:32.390Z,975.66
2023-03-11T01:37:32.335Z,975.74
2023-03-11T01:38:32.333Z,975.70
2023-03-11T01:39:32.324Z,975.78
2023-03-11T01:40:32.318Z,975.82
2023-03-11T01:41:32.337Z,975.82
2023-03-11T01:42:32.313Z,975.89
2023-03-11T01:43:32.283Z,975.87
2023-03-11T01:44:32.269Z,975.94
2023-03-11T01:45:32.253Z,975.90
2023-03-11T01:46:32.315Z,975.98
2023-03-11T01:47:32.227Z,976.00
2023-03-11T01:48:32.233Z,975.96
2023-03-11T01:49:32.242Z,976.02
2023-03-11T01:50:32.210Z,976.05
2023-03-11T01:51:32.192Z,975.95
2023-03-11T01:52:32.205Z,976.05
2023-03-11T01:53:32.203Z,976.09
2023-03-11T01:54:32.174Z,976.08
2023-03-11T01:55:32.161Z,976.09
2023-03-11T01:56:32.151Z,976.10
2023-03-11T01:57:32.139Z,976.09
2023-03-11T01:58:32.146Z,976.17
2023-03-11T01:59:32.131Z,976.18
2023-03-11T02:00:32.116Z,976.18
2023-03-11T02:01:32.146Z,976.29
2023-03-11T02:02:32.109Z,976.28
2023-03-11T02:03:32.110Z,976.29
2023-03-11T02:04:32.087Z,976.32
2023-03-11T02:05:32.074Z,976.36
2023-03-11T02:06:32.043Z,976.22
2023-03-11T02:07:32.040Z,976.32
2023-03-11T02:08:32.031Z,976.33
2023-03-11T02:09:32.051Z,976.37
2023-03-11T02:10:32.006Z,976.31
2023-03-11T02:11:31.998Z,976.36
2023-03-11T02:12:32.002Z,976.37
2023-03-11T02:13:31.987Z,976.32
2023-03-11T02:14:32.006Z,976.37
2023-03-11T02:15:31.964Z,976.40
2023-03-11T02:16:32.010Z,976.42
2023-03-11T02:17:31.938Z,976.43
2023-03-11T02:18:31.949Z,976.46
2023-03-11T02:19:31.927Z,976.45
2023-03-11T02:20:31.920Z,976.52
2023-03-11T02:21:31.933Z,976.54
2023-03-11T02:22:31.900Z,976.53
2023-03-11T02:23:31.900Z,976.39
2023-03-11T02:24:31.876Z,976.47
2023-03-11T02:25:31.869Z,976.55
2023-03-11T02:26:31.865Z,976.47
2023-03-11T02:27:31.863Z,976.59
2023-03-11T02:28:31.855Z,976.60
2023-03-11T02:29:31.835Z,976.60
2023-03-11T02:30:31.844Z,976.59
2023-03-11T02:31:31.891Z,976.62
2023-03-11T02:32:31.849Z,976.66
2023-03-11T02:33:31.796Z,976.66
2023-03-11T02:34:31.804Z,976.61
2023-03-11T02:35:31.809Z,976.72
2023-03-11T02:36:31.780Z,976.65
2023-03-11T02:37:31.761Z,976.67
2023-03-11T02:38:31.752Z,976.70
2023-03-11T02:39:31.781Z,976.81
2023-03-11T02:40:31.739Z,976.76
2023-03-11T02:41:31.720Z,976.80
2023-03-11T02:42:31.702Z,976.85
2023-03-11T02:43:31.701Z,976.86
2023-03-11T02:44:31.685Z,976.88
2023-03-11T02:45:31.695Z,977.07
2023-03-11T02:46:31.756Z,976.89
2023-03-11T02:47:31.657Z,976.89
2023-03-11T02:48:31.651Z,976.98
2023-03-11T02:49:31.672Z,977.02
2023-03-11T02:50:31.639Z,977.03
2023-03-11T02:51:31.604Z,977.01
2023-03-11T02:52:31.594Z,977.08
2023-03-11T02:53:31.621Z,977.03
2023-03-11T02:54:31.580Z,977.05
2023-03-11T02:55:31.586Z,977.09
2023-03-11T02:56:31.547Z,977.09
2023-03-11T02:57:31.561Z,977.11
2023-03-11T02:58:31.562Z,977.05
2023-03-11T02:59:31.548Z,977.09
2023-03-11T03:00:31.589Z,977.15
2023-03-11T03:01:31.504Z,977.08
2023-03-11T03:02:31.502Z,977.13
2023-03-11T03:03:31.532Z,977.15
2023-03-11T03:04:31.576Z,977.04
2023-03-11T03:05:31.472Z,977.11
2023-03-11T03:06:31.466Z,977.13
2023-03-11T03:07:31.471Z,977.21
2023-03-11T03:08:31.460Z,977.18
2023-03-11T03:09:31.432Z,977.17
2023-03-11T03:10:31.420Z,977.17
2023-03-11T03:11:31.436Z,977.22
2023-03-11T03:12:31.399Z,977.23
2023-03-11T03:13:31.380Z,977.26
2023-03-11T03:14:32.381Z,977.25
2023-03-11T03:15:31.374Z,977.25
2023-03-11T03:16:31.424Z,977.29
2023-03-11T03:17:31.385Z,977.24
2023-03-11T03:18:31.346Z,977.29
2023-03-11T03:19:31.359Z,977.24
2023-03-11T03:20:31.319Z,977.31
2023-03-11T03:21:31.358Z,977.36
2023-03-11T03:22:31.300Z,977.32
2023-03-11T03:23:31.333Z,977.40
2023-03-11T03:24:31.297Z,977.44
2023-03-11T03:25:31.296Z,977.41
2023-03-11T03:26:31.289Z,977.43
2023-03-11T03:27:31.257Z,977.41
2023-03-11T03:28:31.258Z,977.44
2023-03-11T03:29:31.244Z,977.46
2023-03-11T03:30:31.236Z,977.46
2023-03-11T03:31:31.324Z,977.52
2023-03-11T03:32:31.295Z,977.51
2023-03-11T03:33:31.233Z,977.51
2023-03-11T03:34:31.187Z,977.55
2023-03-11T03:35:31.247Z,977.53
2023-03-11T03:36:31.182Z,977.60
2023-03-11T03:37:31.162Z,977.50
2023-03-11T03:38:31.142Z,977.48
2023-03-11T03:39:31.134Z,977.56
2023-03-11T03:40:31.123Z,977.56
2023-03-11T03:41:31.112Z,977.63
2023-03-11T03:42:31.118Z,977.63
2023-03-11T03:43:31.095Z,977.72
2023-03-11T03:44:31.093Z,977.70
2023-03-11T03:45:31.071Z,977.72
2023-03-11T03:46:31.060Z,977.75
2023-03-11T03:47:31.073Z,977.79
2023-03-11T03:48:31.059Z,977.88
2023-03-11T03:49:31.055Z,977.82
2023-03-11T03:50:31.024Z,977.85
2023-03-11T03:51:31.012Z,977.90
2023-03-11T03:52:31.008Z,977.93
2023-03-11T03:53:30.999Z,977.96
2023-03-11T03:54:31.012Z,977.93
2023-03-11T03:55:30.975Z,977.94
2023-03-11T03:56:30.967Z,977.90
2023-03-11T03:57:30.959Z,977.96
2023-03-11T03:58:30.933Z,977.95
2023-03-11T03:59:30.943Z,978.02
2023-03-11T04:00:30.961Z,977.94
2023-03-11T04:01:30.912Z,978.01
2023-03-11T04:02:30.997Z,978.03
2023-03-11T04:03:30.989Z,977.99
2023-03-11T04:04:30.902Z,978.01
2023-03-11T04:05:30.912Z,977.97
2023-03-11T04:06:30.883Z,978.05
2023-03-11T04:07:30.888Z,978.02
2023-03-11T04:08:30.864Z,978.04
2023-03-11T04:09:30.830Z,978.07
2023-03-11T04:10:30.837Z,978.02
2023-03-11T04:11:30.820Z,978.08
2023-03-11T04:12:30.857Z,978.03
2023-03-11T04:13:30.800Z,978.01
2023-03-11T04:14:30.811Z,978.03
2023-03-11T04:15:30.785Z,978.06
2023-03-11T04:16:30.858Z,978.12
2023-03-11T04:17:30.800Z,978.13
2023-03-11T04:18:30.776Z,978.14
2023-03-11T04:19:31.754Z,978.12
2023-03-11T04:20:30.736Z,978.09
2023-03-11T04:21:31.725Z,978.13
2023-03-11T04:22:30.722Z,978.03
2023-03-11T04:23:30.726Z,978.05
2023-03-11T04:24:30.711Z,978.10
2023-03-11T04:25:30.687Z,978.13
2023-03-11T04:26:30.712Z,978.16
2023-03-11T04:27:30.659Z,978.15
2023-03-11T04:28:30.664Z,978.13
2023-03-11T04:29:30.647Z,978.21
2023-03-11T04:30:30.624Z,978.23
2023-03-11T04:31:30.680Z,978.21
2023-03-11T04:32:30.730Z,978.23
2023-03-11T04:33:30.612Z,978.29
2023-03-11T04:34:30.595Z,978.30
2023-03-11T04:35:30.600Z,978.29
2023-03-11T04:36:30.595Z,978.28
2023-03-11T04:37:30.608Z,978.30
2023-03-11T04:38:30.556Z,978.26
2023-03-11T04:39:30.553Z,978.30
2023-03-11T04:40:30.554Z,978.31
2023-03-11T04:41:30.528Z,978.33
2023-03-11T04:42:30.542Z,978.39
2023-03-11T04:43:30.512Z,978.36
2023-03-11T04:44:30.497Z,978.38
2023-03-11T04:45:30.501Z,978.44
2023-03-11T04:46:30.542Z,978.38
2023-03-11T04:47:30.486Z,978.46
2023-03-11T04:48:30.463Z,978.53
2023-03-11T04:49:30.440Z,978.53
2023-03-11T04:50:30.447Z,978.54
2023-03-11T04:51:30.461Z,978.56
2023-03-11T04:52:30.421Z,978.53
2023-03-11T04:53:30.403Z,978.54
2023-03-11T04:54:30.395Z,978.55
2023-03-11T04:55:30.385Z,978.49
2023-03-11T04:56:30.391Z,978.53
2023-03-11T04:57:30.394Z,978.53
2023-03-11T04:58:31.352Z,978.51
2023-03-11T04:59:30.344Z,978.58
2023-03-11T05:00:30.330Z,978.60
2023-03-11T05:01:30.393Z,978.51
2023-03-11T05:02:30.333Z,978.56
2023-03-11T05:03:30.418Z,978.56
2023-03-11T05:04:30.313Z,978.54
2023-03-11T05:05:30.284Z,978.53
2023-03-11T05:06:30.288Z,978.54
2023-03-11T05:07:30.296Z,978.58
2023-03-11T05:08:30.254Z,978.52
2023-03-11T05:09:30.252Z,978.59
2023-03-11T05:10:31.885Z,978.57
2023-03-11T05:11:31.248Z,978.62
2023-03-11T05:12:30.218Z,978.62
2023-03-11T05:13:30.213Z,978.63
2023-03-11T05:14:30.229Z,978.67
2023-03-11T05:15:30.190Z,978.69
2023-03-11T05:16:30.195Z,978.66
2023-03-11T05:17:30.172Z,978.72
2023-03-11T05:18:30.166Z,978.72
2023-03-11T05:19:30.166Z,978.80
2023-03-11T05:20:30.154Z,978.77
2023-03-11T05:21:30.140Z,978.79
2023-03-11T05:22:31.148Z,978.80
2023-03-11T05:23:30.119Z,978.74
2023-03-11T05:24:30.099Z,978.80
2023-03-11T05:25:30.092Z,978.77
2023-03-11T05:26:30.098Z,978.83
2023-03-11T05:27:30.084Z,978.93
2023-03-11T05:28:30.090Z,978.88
2023-03-11T05:29:30.069Z,978.88
2023-03-11T05:30:30.041Z,978.87
2023-03-11T05:31:30.091Z,978.91
2023-03-11T05:32:30.081Z,978.91
2023-03-11T05:33:30.036Z,979.04
2023-03-11T05:34:30.016Z,978.95
2023-03-11T05:35:30.028Z,979.00
2023-03-11T05:36:29.992Z,979.00
2023-03-11T05:37:29.979Z,978.90
2023-03-11T05:38:29.982Z,978.99
2023-03-11T05:39:29.968Z,978.94
2023-03-11T05:40:29.944Z,978.93
2023-03-11T05:41:29.956Z,978.96
2023-03-11T05:42:29.981Z,979.04
2023-03-11T05:43:29.920Z,979.08
2023-03-11T05:44:29.911Z,979.07
2023-03-11T05:45:30.891Z,979.07
2023-03-11T05:46:29.934Z,979.11
2023-03-11T05:47:29.938Z,979.10
2023-03-11T05:48:29.864Z,979.12
2023-03-11T05:49:29.864Z,979.11
2023-03-11T05:50:29.856Z,979.12
2023-03-11T05:51:29.845Z,979.17
2023-03-11T05:52:29.842Z,979.18
2023-03-11T05:53:29.864Z,979.19
2023-03-11T05:54:29.814Z,979.18
2023-03-11T05:55:29.807Z,979.19
2023-03-11T05:56:29.807Z,979.16
2023-03-11T05:57:29.773Z,979.21
2023-03-11T05:58:30.804Z,979.27
2023-03-11T05:59:29.769Z,979.27
2023-03-11T06:00:29.781Z,979.28
2023-03-11T06:01:29.753Z,979.27
2023-03-11T06:02:29.734Z,979.20
2023-03-11T06:03:29.739Z,979.33
2023-03-11T06:04:29.817Z,979.26
2023-03-11T06:05:29.812Z,979.32
2023-03-11T06:06:29.698Z,979.34
2023-03-11T06:07:29.684Z,979.34
2023-03-11T06:08:29.671Z,979.36
2023-03-11T06:09:29.690Z,979.37
2023-03-11T06:10:29.657Z,979.36
2023-03-11T06:11:29.662Z,979.38
2023-03-11T06:12:29.694Z,979.39
2023-03-11T06:13:29.623Z,979.40
2023-03-11T06:14:29.642Z,979.44
2023-03-11T06:15:29.615Z,979.46
2023-03-11T06:16:29.648Z,979.39
2023-03-11T06:17:30.567Z,979.50
2023-03-11T06:18:29.567Z,979.53
2023-03-11T06:19:29.572Z,979.52
2023-03-11T06:20:29.580Z,979.50
2023-03-11T06:21:29.552Z,979.52
2023-03-11T06:22:29.553Z,979.55
2023-03-11T06:23:29.527Z,979.51
2023-03-11T06:24:29.528Z,979.52
2023-03-11T06:25:29.512Z,979.58
2023-03-11T06:26:29.503Z,979.58
2023-03-11T06:27:29.491Z,979.60
2023-03-11T06:28:29.480Z,979.63
2023-03-11T06:29:29.493Z,979.59
2023-03-11T06:30:29.459Z,979.66
2023-03-11T06:31:29.487Z,979.62
2023-03-11T06:32:29.480Z,979.71
2023-03-11T06:33:29.460Z,979.69
2023-03-11T06:34:29.420Z,979.69
2023-03-11T06:35:29.449Z,979.75
2023-03-11T06:36:29.417Z,979.76
2023-03-11T06:37:29.389Z,979.77
2023-03-11T06:38:29.387Z,979.71
2023-03-11T06:39:29.398Z,979.78
2023-03-11T06:40:29.360Z,979.70
2023-03-11T06:41:29.346Z,979.76
2023-03-11T06:42:29.341Z,979.78
2023-03-11T06:43:29.347Z,979.84
2023-03-11T06:44:29.356Z,979.78
2023-03-11T06:45:29.348Z,979.81
2023-03-11T06:46:29.314Z,979.76
2023-03-11T06:47:29.298Z,979.76
2023-03-11T06:48:29.290Z,979.83
2023-03-11T06:49:29.296Z,979.85
2023-03-11T06:50:29.264Z,979.88
2023-03-11T06:51:29.264Z,979.93
2023-03-11T06:52:29.261Z,979.95
2023-03-11T06:53:29.246Z,979.86
2023-03-11T06:54:29.254Z,979.93
2023-03-11T06:55:29.213Z,979.93
2023-03-11T06:56:29.201Z,979.94
2023-03-11T06:57:29.213Z,979.97
2023-03-11T06:58:29.186Z,979.98
2023-03-11T06:59:29.206Z,980.03
2023-03-11T07:00:29.167Z,980.03
2023-03-11T07:01:29.221Z,980.01
2023-03-11T07:02:29.144Z,980.11
2023-03-11T07:03:29.136Z,980.13
2023-03-11T07:04:29.126Z,980.07
2023-03-11T07:05:30.126Z,980.20
2023-03-11T07:06:29.144Z,980.15
2023-03-11T07:07:29.115Z,980.17
2023-03-11T07:08:29.098Z,980.15
2023-03-11T07:09:29.088Z,980.20
2023-03-11T07:10:29.079Z,980.22
2023-03-11T07:11:29.094Z,980.20
2023-03-11T07:12:29.064Z,980.21
2023-03-11T07:13:29.041Z,980.20
2023-03-11T07:14:29.037Z,980.24
2023-03-11T07:15:29.047Z,980.35
2023-03-11T07:16:29.046Z,980.25
2023-03-11T07:17:29.045Z,980.30
2023-03-11T07:18:28.998Z,980.38
2023-03-11T07:19:28.997Z,980.31
2023-03-11T07:20:28.998Z,980.37
2023-03-11T07:21:28.962Z,980.33
2023-03-11T07:22:28.954Z,980.37
2023-03-11T07:23:28.950Z,980.42
2023-03-11T07:24:28.947Z,980.37
2023-03-11T07:25:28.932Z,980.42
2023-03-11T07:26:28.943Z,980.35
2023-03-11T07:27:28.934Z,980.37
2023-03-11T07:28:28.897Z,980.40
2023-03-11T07:29:28.893Z,980.38
2023-03-11T07:30:28.889Z,980.36
2023-03-11T07:31:28.920Z,980.41
2023-03-11T07:32:28.943Z,980.49
2023-03-11T07:33:28.854Z,980.43
2023-03-11T07:35:00.740Z,980.50
2023-03-11T07:35:28.825Z,980.44
2023-03-11T07:36:28.822Z,980.47
2023-03-11T07:37:28.827Z,980.45
2023-03-11T07:38:28.801Z,980.50
2023-03-11T07:39:28.792Z,980.48
2023-03-11T07:40:28.800Z,980.48
2023-03-11T07:41:28.758Z,980.47
2023-03-11T07:42:28.772Z,980.56
2023-03-11T07:43:28.753Z,980.59
2023-03-11T07:44:28.750Z,980.64
2023-03-11T07:45:28.770Z,980.65
2023-03-11T07:46:28.915Z,980.68
2023-03-11T07:47:28.710Z,980.65
2023-03-11T07:48:28.706Z,980.70
2023-03-11T07:49:28.685Z,980.75
2023-03-11T07:50:28.696Z,980.69
2023-03-11T07:51:28.684Z,980.79
2023-03-11T07:52:28.668Z,980.76
2023-03-11T07:53:28.656Z,980.74
2023-03-11T07:54:28.660Z,980.79
2023-03-11T07:55:28.665Z,980.82
2023-03-11T07:56:28.630Z,980.90
2023-03-11T07:57:28.619Z,980.91
2023-03-11T07:58:28.611Z,980.92
2023-03-11T07:59:28.603Z,980.89
2023-03-11T08:00:28.657Z,980.98
2023-03-11T08:01:28.584Z,981.01
2023-03-11T08:02:28.647Z,981.05
2023-03-11T08:03:28.611Z,981.07
2023-03-11T08:04:28.575Z,981.11
2023-03-11T08:05:28.540Z,981.19
2023-03-11T08:06:29.537Z,981.19
2023-03-11T08:07:28.541Z,981.22
2023-03-11T08:08:28.553Z,981.30
2023-03-11T08:09:28.506Z,981.20
2023-03-11T08:10:28.503Z,981.25
2023-03-11T08:11:28.494Z,981.21
2023-03-11T08:12:28.479Z,981.26
2023-03-11T08:13:28.484Z,981.34
2023-03-11T08:14:28.493Z,981.31
2023-03-11T08:15:28.481Z,981.30
2023-03-11T08:16:28.447Z,981.31
2023-03-11T08:17:28.432Z,981.36
2023-03-11T08:18:28.412Z,981.32
2023-03-11T08:19:28.421Z,981.28
2023-03-11T08:20:28.495Z,981.23
2023-03-11T08:21:28.383Z,981.21
2023-03-11T08:22:28.385Z,981.24
2023-03-11T08:23:28.359Z,981.06
2023-03-11T08:24:28.360Z,981.17
2023-03-11T08:25:28.392Z,981.13
2023-03-11T08:26:28.363Z,981.22
2023-03-11T08:27:28.339Z,981.20
2023-03-11T08:28:28.317Z,981.32
2023-03-11T08:29:28.320Z,981.29
2023-03-11T08:30:28.403Z,981.24
2023-03-11T08:31:28.370Z,981.30
2023-03-11T08:32:28.298Z,981.21
2023-03-11T08:33:28.264Z,981.26
2023-03-11T08:34:28.252Z,981.22
2023-03-11T08:35:28.291Z,981.15
2023-03-11T08:36:28.247Z,981.21
2023-03-11T08:37:28.249Z,981.24
2023-03-11T08:38:28.245Z,981.21
2023-03-11T08:39:28.219Z,981.27
2023-03-11T08:40:28.215Z,981.26
2023-03-11T08:41:28.214Z,981.29
2023-03-11T08:42:28.182Z,981.31
2023-03-11T08:43:28.187Z,981.39
2023-03-11T08:44:28.172Z,981.43
2023-03-11T08:45:28.180Z,981.43
2023-03-11T08:46:28.264Z,981.50
2023-03-11T08:47:28.138Z,981.55
2023-03-11T08:48:28.125Z,981.52
2023-03-11T08:49:28.111Z,981.55
2023-03-11T08:50:28.125Z,981.54
2023-03-11T08:51:28.104Z,981.54
2023-03-11T08:52:28.087Z,981.65
2023-03-11T08:53:28.086Z,981.57
2023-03-11T08:54:28.088Z,981.57
2023-03-11T08:55:28.073Z,981.61
2023-03-11T08:56:28.038Z,981.60
2023-03-11T08:57:28.038Z,981.70
2023-03-11T08:58:28.040Z,981.76
2023-03-11T08:59:28.034Z,981.75
2023-03-11T09:00:28.014Z,981.72
2023-03-11T09:01:28.020Z,981.81
2023-03-11T09:02:28.053Z,981.79
2023-03-11T09:03:27.975Z,981.76
2023-03-11T09:04:27.976Z,981.78
2023-03-11T09:05:27.972Z,981.73
2023-03-11T09:06:27.940Z,981.74
2023-03-11T09:07:28.962Z,981.80
2023-03-11T09:08:27.928Z,981.79
2023-03-11T09:09:27.929Z,981.79
2023-03-11T09:10:27.910Z,981.80
2023-03-11T09:11:27.909Z,981.80
2023-03-11T09:12:27.878Z,981.67
2023-03-11T09:13:27.869Z,981.78
2023-03-11T09:14:27.876Z,981.75
2023-03-11T09:15:27.874Z,981.76
2023-03-11T09:16:27.942Z,981.79
2023-03-11T09:17:27.827Z,981.82
2023-03-11T09:18:27.819Z,981.78
2023-03-11T09:19:27.845Z,981.82
2023-03-11T09:20:27.811Z,981.84
2023-03-11T09:21:27.790Z,981.85
2023-03-11T09:22:27.781Z,981.85
2023-03-11T09:23:27.788Z,981.89
2023-03-11T09:24:27.777Z,981.85
2023-03-11T09:25:27.780Z,981.82
2023-03-11T09:26:27.742Z,981.79
2023-03-11T09:27:27.738Z,981.84
2023-03-11T09:28:27.749Z,981.78
2023-03-11T09:29:27.708Z,981.89
2023-03-11T09:30:27.739Z,981.85
2023-03-11T09:31:27.769Z,981.89
2023-03-11T09:32:27.736Z,981.89
2023-03-11T09:33:27.689Z,982.00
2023-03-11T09:34:27.659Z,982.01
2023-03-11T09:35:27.730Z,981.96
2023-03-11T09:36:27.642Z,981.95
2023-03-11T09:37:27.665Z,982.02
2023-03-11T09:38:27.647Z,982.00
2023-03-11T09:39:27.639Z,981.98
2023-03-11T09:40:27.611Z,982.07
2023-03-11T09:41:27.646Z,982.09
2023-03-11T09:42:27.598Z,982.12
2023-03-11T09:43:27.572Z,982.11
2023-03-11T09:44:27.590Z,982.13
2023-03-11T09:45:27.580Z,982.15
2023-03-11T09:46:27.607Z,982.20
2023-03-11T09:47:27.556Z,982.09
2023-03-11T09:48:27.523Z,982.10
2023-03-11T09:49:27.538Z,982.09
2023-03-11T09:50:27.530Z,982.18
2023-03-11T09:51:27.538Z,982.17
2023-03-11T09:52:27.521Z,982.10
2023-03-11T09:53:27.488Z,982.15
2023-03-11T09:54:27.464Z,982.15
2023-03-11T09:55:27.470Z,982.12
2023-03-11T09:56:27.451Z,982.19
2023-03-11T09:57:27.444Z,982.17
2023-03-11T09:58:27.436Z,982.27
2023-03-11T09:59:27.414Z,982.19
2023-03-11T10:00:27.395Z,982.18
2023-03-11T10:01:27.389Z,982.14
2023-03-11T10:02:27.502Z,982.20
2023-03-11T10:03:27.364Z,982.09
2023-03-11T10:04:27.374Z,982.20
2023-03-11T10:05:27.361Z,982.23
2023-03-11T10:06:27.360Z,982.30
2023-03-11T10:07:27.355Z,982.27
2023-03-11T10:08:27.317Z,982.26
2023-03-11T10:09:27.308Z,982.23
2023-03-11T10:10:27.302Z,982.21
2023-03-11T10:11:27.283Z,982.21
2023-03-11T10:12:27.310Z,982.20
2023-03-11T10:13:27.280Z,982.19
2023-03-11T10:14:27.275Z,982.14
2023-03-11T10:15:27.240Z,982.21
2023-03-11T10:16:27.267Z,982.22
2023-03-11T10:17:27.247Z,982.19
2023-03-11T10:18:27.215Z,982.24
2023-03-11T10:19:27.222Z,982.23
2023-03-11T10:20:27.185Z,982.26
2023-03-11T10:21:27.177Z,982.26
2023-03-11T10:22:27.172Z,982.19
2023-03-11T10:23:27.182Z,982.24
2023-03-11T10:24:27.166Z,982.25
2023-03-11T10:25:27.186Z,982.34
2023-03-11T10:26:27.126Z,982.35
2023-03-11T10:27:27.105Z,982.35
2023-03-11T10:28:27.124Z,982.33
2023-03-11T10:29:27.097Z,982.28
2023-03-11T10:30:27.102Z,982.28
2023-03-11T10:31:27.128Z,982.31
2023-03-11T10:32:27.084Z,982.35
2023-03-11T10:33:27.107Z,982.20
2023-03-11T10:34:27.050Z,982.29
2023-03-11T10:35:27.039Z,982.23
2023-03-11T10:36:27.096Z,982.24
2023-03-11T10:37:33.191Z,982.29
2023-03-11T10:38:29.027Z,982.32
2023-03-11T10:39:27.020Z,982.29
2023-03-11T10:40:27.001Z,982.28
2023-03-11T10:41:26.992Z,982.29
2023-03-11T10:42:27.010Z,982.39
2023-03-11T10:43:26.959Z,982.34
2023-03-11T10:44:26.977Z,982.33
2023-03-11T10:45:26.985Z,982.33
2023-03-11T10:46:26.930Z,982.30
2023-03-11T10:47:26.962Z,982.25
2023-03-11T10:48:26.917Z,982.32
2023-03-11T10:49:26.898Z,982.31
2023-03-11T10:50:26.905Z,982.31
2023-03-11T10:51:26.965Z,982.35
2023-03-11T10:52:26.884Z,982.36
2023-03-11T10:53:26.855Z,982.34
2023-03-11T10:54:27.869Z,982.33
2023-03-11T10:55:26.840Z,982.39
2023-03-11T10:56:26.861Z,982.35
2023-03-11T10:57:26.831Z,982.26
2023-03-11T10:58:26.836Z,982.33
2023-03-11T10:59:26.820Z,982.36
2023-03-11T11:00:26.808Z,982.34
2023-03-11T11:01:26.901Z,982.35
2023-03-11T11:02:26.812Z,982.31
2023-03-11T11:03:26.778Z,982.30
2023-03-11T11:04:26.799Z,982.32
2023-03-11T11:05:26.750Z,982.34
2023-03-11T11:06:26.776Z,982.35
2023-03-11T11:07:26.762Z,982.37
2023-03-11T11:08:26.739Z,982.28
2023-03-11T11:09:27.134Z,982.36
2023-03-11T11:10:27.716Z,982.41
2023-03-11T11:11:26.696Z,982.33
2023-03-11T11:12:26.674Z,982.36
2023-03-11T11:13:26.679Z,982.35
2023-03-11T11:14:26.668Z,982.33
2023-03-11T11:15:26.690Z,982.38
2023-03-11T11:16:26.669Z,982.36
2023-03-11T11:17:26.641Z,982.31
2023-03-11T11:18:26.631Z,982.36
2023-03-11T11:19:26.614Z,982.33
2023-03-11T11:20:26.681Z,982.40
2023-03-11T11:21:26.594Z,982.38
2023-03-11T11:22:26.628Z,982.39
2023-03-11T11:23:26.568Z,982.35
2023-03-11T11:24:26.581Z,982.34
2023-03-11T11:25:26.589Z,982.40
2023-03-11T11:26:26.552Z,982.42
2023-03-11T11:27:26.526Z,982.53
2023-03-11T11:28:26.531Z,982.46
2023-03-11T11:29:26.551Z,982.47
2023-03-11T11:30:26.530Z,982.44
2023-03-11T11:31:26.504Z,982.41
2023-03-11T11:32:26.505Z,982.37
2023-03-11T11:33:26.480Z,982.40
2023-03-11T11:34:26.463Z,982.45
2023-03-11T11:35:26.494Z,982.39
2023-03-11T11:36:26.426Z,982.37
2023-03-11T11:37:26.421Z,982.43
2023-03-11T11:38:26.429Z,982.39
2023-03-11T11:39:26.399Z,982.42
2023-03-11T11:40:26.412Z,982.46
2023-03-11T11:41:26.388Z,982.44
2023-03-11T11:42:26.374Z,982.44
2023-03-11T11:43:26.383Z,982.43
2023-03-11T11:44:26.349Z,982.46
2023-03-11T11:45:26.368Z,982.48
2023-03-11T11:46:26.424Z,982.46
2023-03-11T11:47:26.321Z,982.50
2023-03-11T11:48:26.308Z,982.56
2023-03-11T11:49:26.324Z,982.56
2023-03-11T11:50:26.321Z,982.59
2023-03-11T11:51:26.324Z,982.52
2023-03-11T11:52:26.284Z,982.52
2023-03-11T11:53:26.260Z,982.44
2023-03-11T11:54:26.296Z,982.45
2023-03-11T11:55:26.256Z,982.43
2023-03-11T11:56:26.246Z,982.36
2023-03-11T11:57:26.257Z,982.38
2023-03-11T11:58:26.221Z,982.40
2023-03-11T11:59:26.251Z,982.32
2023-03-11T12:00:26.205Z,982.45
2023-03-11T12:01:26.201Z,982.52
2023-03-11T12:02:26.254Z,982.41
2023-03-11T12:03:26.195Z,982.47
2023-03-11T12:04:26.169Z,982.46
2023-03-11T12:05:26.200Z,982.46
2023-03-11T12:06:26.163Z,982.48
2023-03-11T12:07:26.121Z,982.51
2023-03-11T12:08:26.168Z,982.43
2023-03-11T12:09:26.146Z,982.43
2023-03-11T12:10:26.148Z,982.53
2023-03-11T12:11:26.106Z,982.57
2023-03-11T12:12:26.090Z,982.54
2023-03-11T12:13:27.105Z,982.52
2023-03-11T12:14:26.100Z,982.54
2023-03-11T12:15:26.053Z,982.62
2023-03-11T12:16:26.091Z,982.61
2023-03-11T12:17:26.045Z,982.54
2023-03-11T12:18:26.030Z,982.66
2023-03-11T12:19:26.017Z,982.57
2023-03-11T12:20:26.011Z,982.56
2023-03-11T12:21:26.032Z,982.56
2023-03-11T12:22:25.977Z,982.58
2023-03-11T12:23:26.002Z,982.59
2023-03-11T12:24:26.025Z,982.57
2023-03-11T12:25:26.018Z,982.58
2023-03-11T12:26:25.950Z,982.61
2023-03-11T12:27:25.958Z,982.54
2023-03-11T12:28:25.931Z,982.58